This is the latest recevied weather packets stored in our database for station/object CE1RLP-31. If no packets are shown the sender has not sent any weather packets the latest 10 day(s).
| Time | Temp. | Humidity | Pressure | Rain* | Wind** | Luminosity | Snow |
|---|---|---|---|---|---|---|---|
| 1777914462 | 21.11° C | 11% | 1099.3 hPa | - | - | - | - |
| 1777913562 | 20.56° C | 10% | 1099.5 hPa | - | - | - | - |
| 1777912664 | 20.56° C | 10% | 1099.7 hPa | - | - | - | - |
| 1777911762 | 20° C | 10% | 1099.7 hPa | - | - | - | - |
| 1777910862 | 20° C | 10% | 1099.9 hPa | - | - | - | - |
| 1777909964 | 20° C | 11% | 1100 hPa | - | - | - | - |
| 1777909063 | 19.44° C | 11% | 1100.2 hPa | - | - | - | - |
| 1777908163 | 18.89° C | 11% | 1100.3 hPa | - | - | - | - |
| 1777907271 | 18.33° C | 12% | 1100.4 hPa | - | - | - | - |
| 1777906363 | 17.78° C | 12% | 1100.3 hPa | - | - | - | - |
| 1777905463 | 16.67° C | 12% | 1100.2 hPa | - | - | - | - |
| 1777904563 | 16.11° C | 12% | 1100.3 hPa | - | - | - | - |
| 1777903663 | 10.56° C | 13% | 1095.2 hPa | - | - | - | - |
| 1777902763 | 14.44° C | 13% | 1100.3 hPa | - | - | - | - |
| 1777901863 | 13.89° C | 13% | 1100.1 hPa | - | - | - | - |
| 1777900962 | 13.33° C | 14% | 1100 hPa | - | - | - | - |
| 1777900062 | 12.78° C | 14% | 1101.5 hPa | - | - | - | - |
| 1777899162 | 11.67° C | 14% | 1099.9 hPa | - | - | - | - |
| 1777898262 | 11.11° C | 14% | 1099.9 hPa | - | - | - | - |
| 1777897362 | 10.56° C | 15% | 1099.9 hPa | - | - | - | - |
| 1777896462 | 10° C | 15% | 1099.8 hPa | - | - | - | - |
| 1777895562 | 9.44° C | 15% | 1099.6 hPa | - | - | - | - |
| 1777894662 | 9.44° C | 15% | 1099.5 hPa | - | - | - | - |
| 1777893762 | 8.89° C | 14% | 1099.4 hPa | - | - | - | - |
| 1777892862 | 8.89° C | 14% | 1099.4 hPa | - | - | - | - |
* Rain since midnight (hover to see other rain measurements)
** Current wind speed in m/s (hover to see current wind gust speed)